Time;durP1;ratioP1;P1;durP2;ratioP2;P2;SDS_P1;SDS_P2;PMS_P1;PMS_P2;Temp;Humidity;BMP_temperature;BMP_pressure;BME280_temperature;BME280_humidity;BME280_pressure;Samples;Min_cycle;Max_cycle;Signal;HPM_P1;HPM_P2
2021/08/11 00:00:32;;;;;;;9.60;3.95;;;18.40;59.10;;;;;;4881524;29;20051;-91
2021/08/11 00:06:21;;;;;;;7.90;4.07;;;18.30;59.60;;;;;;4887544;29;20101;-91
2021/08/11 00:12:10;;;;;;;9.10;4.07;;;18.10;60.00;;;;;;4886256;29;20089;-90
2021/08/11 00:17:59;;;;;;;9.05;3.97;;;18.10;60.60;;;;;;4880926;29;20081;-90
2021/08/11 00:23:51;;;;;;;9.20;4.25;;;18.00;61.00;;;;;;4880713;29;20032;-90
2021/08/11 00:33:35;;;;;;;8.32;4.07;;;18.00;61.60;;;;;;4880527;29;20043;-90
2021/08/11 00:39:24;;;;;;;8.77;4.05;;;17.90;61.90;;;;;;4880249;29;20561;-90
2021/08/11 00:45:14;;;;;;;9.75;4.05;;;17.80;61.70;;;;;;4880481;29;20081;-90
2021/08/11 00:51:06;;;;;;;7.97;3.97;;;17.70;61.90;;;;;;4884420;29;20390;-90
2021/08/11 00:56:56;;;;;;;9.90;4.25;;;17.50;62.20;;;;;;4884564;29;20120;-91
2021/08/11 01:02:46;;;;;;;8.57;4.22;;;17.40;62.40;;;;;;4883893;29;20053;-89
2021/08/11 01:08:37;;;;;;;9.07;4.38;;;17.20;62.80;;;;;;4883761;29;20081;-90
2021/08/11 01:14:27;;;;;;;8.85;4.18;;;17.20;63.50;;;;;;4883866;29;20052;-90
2021/08/11 01:20:16;;;;;;;11.20;4.85;;;17.20;64.40;;;;;;4883537;29;20056;-88
2021/08/11 01:26:19;;;;;;;9.25;4.32;;;17.30;64.90;;;;;;4883787;29;20382;-91
2021/08/11 01:36:47;;;;;;;9.65;4.43;;;17.50;65.10;;;;;;4883660;29;20139;-90
2021/08/11 01:42:44;;;;;;;10.65;4.90;;;17.50;65.10;;;;;;4883495;29;20439;-90
2021/08/11 01:48:37;;;;;;;8.80;4.32;;;17.50;65.60;;;;;;4883216;29;20040;-91
2021/08/11 01:54:27;;;;;;;9.85;4.47;;;17.50;65.80;;;;;;4883088;29;20044;-90
2021/08/11 02:00:17;;;;;;;9.40;4.57;;;17.60;65.90;;;;;;4882872;29;20044;-90
2021/08/11 02:06:06;;;;;;;9.52;4.00;;;17.60;65.90;;;;;;4882995;29;20036;-90
2021/08/11 02:11:55;;;;;;;9.52;4.35;;;17.50;66.10;;;;;;4882477;29;20032;-89
2021/08/11 02:17:44;;;;;;;8.88;4.20;;;17.50;66.30;;;;;;4882936;29;20040;-90
2021/08/11 02:23:34;;;;;;;8.63;4.22;;;17.50;66.60;;;;;;4882768;29;20048;-91
2021/08/11 02:29:56;;;;;;;9.02;4.32;;;17.60;67.00;;;;;;4882513;29;20040;-90
2021/08/11 02:35:52;;;;;;;10.15;4.55;;;17.70;67.20;;;;;;4863846;29;20081;-90
2021/08/11 02:42:02;;;;;;;8.77;4.45;;;17.70;67.30;;;;;;4863429;29;20036;-89
2021/08/11 02:47:52;;;;;;;10.27;5.45;;;17.80;67.60;;;;;;4863633;29;20067;-90
2021/08/11 02:53:42;;;;;;;9.25;4.47;;;17.80;67.70;;;;;;4873777;29;20033;-89
2021/08/11 02:59:32;;;;;;;10.85;4.80;;;17.80;67.60;;;;;;4864446;29;20136;-90
2021/08/11 03:05:23;;;;;;;10.73;4.95;;;17.80;67.70;;;;;;4872076;29;20186;-89
2021/08/11 03:11:12;;;;;;;9.98;4.40;;;17.80;68.00;;;;;;4864513;29;20082;-89
2021/08/11 03:17:01;;;;;;;9.88;4.40;;;17.80;68.20;;;;;;4863056;29;20087;-89
2021/08/11 03:22:50;;;;;;;9.52;4.35;;;17.80;68.40;;;;;;4863185;29;20399;-90
2021/08/11 03:28:38;;;;;;;10.55;4.15;;;17.30;68.30;;;;;;4863477;29;20040;-90
2021/08/11 03:38:15;;;;;;;9.35;4.30;;;17.90;68.90;;;;;;4880914;29;20056;-88
2021/08/11 03:44:04;;;;;;;10.10;4.75;;;17.80;69.10;;;;;;4880976;29;20386;-89
2021/08/11 03:49:54;;;;;;;11.02;4.85;;;17.90;69.30;;;;;;4881084;29;20079;-88
2021/08/11 03:55:46;;;;;;;10.10;4.32;;;17.90;69.40;;;;;;4880609;29;20497;-89
2021/08/11 04:02:08;;;;;;;8.57;4.35;;;17.90;69.60;;;;;;4880702;29;20439;-89
2021/08/11 04:07:58;;;;;;;9.05;4.22;;;18.00;69.70;;;;;;4880347;29;20492;-88
2021/08/11 04:13:48;;;;;;;10.80;5.07;;;18.00;69.80;;;;;;4880441;29;20032;-88
2021/08/11 04:19:37;;;;;;;9.70;4.93;;;18.00;69.80;;;;;;4880312;29;20051;-89
2021/08/11 04:25:26;;;;;;;11.13;4.75;;;18.00;70.00;;;;;;4880647;29;20505;-89
2021/08/11 04:31:15;;;;;;;10.50;5.57;;;18.10;70.10;;;;;;4880173;29;20069;-89
2021/08/11 04:41:08;;;;;;;11.10;4.63;;;18.30;70.20;;;;;;4880209;29;20464;-89
2021/08/11 04:46:59;;;;;;;9.20;4.72;;;18.40;70.30;;;;;;4880303;29;20040;-89
2021/08/11 04:52:50;;;;;;;9.07;4.35;;;18.50;70.40;;;;;;4880162;29;20035;-89
2021/08/11 04:58:40;;;;;;;10.43;4.82;;;18.60;70.60;;;;;;4879854;29;20056;-88
2021/08/11 05:04:29;;;;;;;10.05;4.13;;;18.80;70.40;;;;;;4894050;29;20064;-89
2021/08/11 05:10:20;;;;;;;8.55;4.13;;;18.90;70.50;;;;;;4890269;29;20061;-89
2021/08/11 05:16:09;;;;;;;10.70;4.18;;;19.10;70.70;;;;;;4880021;29;20489;-88
2021/08/11 05:22:20;;;;;;;9.32;4.53;;;20.00;71.10;;;;;;4879714;29;20394;-85
2021/08/11 05:28:09;;;;;;;10.32;4.97;;;19.70;70.20;;;;;;4879774;29;20036;-84
2021/08/11 05:33:58;;;;;;;8.75;4.32;;;19.70;70.20;;;;;;4881286;29;20059;-83
2021/08/11 05:43:46;;;;;;;9.48;3.97;;;20.10;70.20;;;;;;4883097;29;20466;-88
2021/08/11 05:49:36;;;;;;;9.35;4.35;;;20.30;70.00;;;;;;4882285;29;20081;-84
2021/08/11 05:55:24;;;;;;;9.68;4.00;;;20.60;70.00;;;;;;4882544;29;20044;-84
2021/08/11 06:01:13;;;;;;;8.75;4.60;;;20.70;69.30;;;;;;4882492;29;20520;-86
2021/08/11 06:07:01;;;;;;;9.35;4.65;;;20.70;69.20;;;;;;4882404;29;20501;-93
2021/08/11 06:12:52;;;;;;;10.07;4.88;;;20.60;69.40;;;;;;4882460;29;20039;-88
2021/08/11 06:18:41;;;;;;;9.55;4.07;;;20.90;69.70;;;;;;4883157;29;20051;-93
2021/08/11 06:24:29;;;;;;;8.85;4.60;;;21.30;69.40;;;;;;4893811;29;20090;-91
2021/08/11 06:30:18;;;;;;;8.00;3.63;;;21.70;69.20;;;;;;4887510;29;20043;-91
2021/08/11 06:36:07;;;;;;;9.80;4.25;;;22.10;68.40;;;;;;4882700;29;20085;-88
2021/08/11 06:45:51;;;;;;;7.93;3.72;;;22.50;67.80;;;;;;4881522;29;20048;-89
2021/08/11 06:51:40;;;;;;;10.02;4.00;;;22.80;67.30;;;;;;4882150;29;20127;-87
2021/08/11 06:57:28;;;;;;;9.80;4.00;;;23.10;66.90;;;;;;4882932;29;20027;-92
2021/08/11 07:03:19;;;;;;;9.27;3.63;;;23.30;66.70;;;;;;4882729;29;20516;-92
2021/08/11 07:09:08;;;;;;;8.45;3.97;;;23.50;65.40;;;;;;4882141;29;20062;-92
2021/08/11 07:14:57;;;;;;;9.63;3.83;;;23.80;65.80;;;;;;4880895;29;20056;-87
2021/08/11 07:20:46;;;;;;;9.35;4.45;;;24.30;65.00;;;;;;4880703;29;20035;-87
2021/08/11 07:26:34;;;;;;;9.98;4.25;;;24.40;64.00;;;;;;4881200;29;20061;-89
2021/08/11 07:32:23;;;;;;;8.80;4.35;;;24.50;63.50;;;;;;4881126;29;20489;-88
2021/08/11 07:38:11;;;;;;;12.73;3.75;;;24.40;63.00;;;;;;4881294;29;20032;-92
2021/08/11 07:47:54;;;;;;;8.77;4.05;;;23.80;62.50;;;;;;4881548;29;20097;-91
2021/08/11 07:53:43;;;;;;;8.00;3.85;;;23.90;64.30;;;;;;4881293;29;20075;-92
2021/08/11 07:59:32;;;;;;;9.88;4.00;;;24.20;62.80;;;;;;4881842;29;20077;-91
2021/08/11 08:05:21;;;;;;;9.38;3.55;;;24.30;62.20;;;;;;4880996;29;20414;-92
2021/08/11 08:11:10;;;;;;;10.60;4.10;;;24.30;62.40;;;;;;4881025;29;20506;-91
2021/08/11 08:16:59;;;;;;;8.93;4.30;;;24.70;62.20;;;;;;4880979;29;20040;-90
2021/08/11 08:22:48;;;;;;;9.70;4.43;;;24.70;61.30;;;;;;4881052;29;20498;-93
2021/08/11 08:28:36;;;;;;;8.90;3.97;;;24.60;60.60;;;;;;4881480;29;20040;-93
2021/08/11 08:34:38;;;;;;;9.77;4.33;;;24.50;60.90;;;;;;4883421;29;20458;-93
2021/08/11 08:40:36;;;;;;;9.18;4.07;;;24.50;61.90;;;;;;4884222;29;20104;-90
2021/08/11 08:50:19;;;;;;;9.50;4.18;;;25.70;62.60;;;;;;4883468;29;20055;-92
2021/08/11 08:56:09;;;;;;;9.68;3.40;;;26.90;61.70;;;;;;4883770;29;20039;-92
2021/08/11 09:01:57;;;;;;;7.78;3.45;;;27.80;60.20;;;;;;4883613;29;20031;-89
2021/08/11 09:07:47;;;;;;;8.07;3.22;;;28.50;58.50;;;;;;4882021;29;20040;-86
2021/08/11 09:13:36;;;;;;;8.70;3.03;;;29.00;57.50;;;;;;4882967;29;20044;-85
2021/08/11 09:19:25;;;;;;;7.70;3.15;;;29.50;56.60;;;;;;4882824;29;20036;-86
2021/08/11 09:25:14;;;;;;;6.93;3.15;;;29.70;55.40;;;;;;4882735;29;20036;-86
2021/08/11 09:31:27;;;;;;;7.03;2.67;;;29.50;53.80;;;;;;4882709;29;20093;-86
2021/08/11 09:37:17;;;;;;;7.82;2.90;;;29.60;54.10;;;;;;4882531;29;20028;-85
2021/08/11 09:43:11;;;;;;;8.00;3.08;;;29.90;53.10;;;;;;4882740;29;20485;-83
2021/08/11 09:49:21;;;;;;;7.47;3.13;;;30.40;52.90;;;;;;4880533;29;20052;-84
2021/08/11 09:55:17;;;;;;;9.52;3.05;;;31.00;52.50;;;;;;4889438;29;20044;-84
2021/08/11 10:01:26;;;;;;;6.68;3.40;;;31.70;51.40;;;;;;4895146;29;20056;-86
2021/08/11 10:07:15;;;;;;;5.20;2.80;;;32.00;49.80;;;;;;4882508;29;20036;-85
2021/08/11 10:13:08;;;;;;;7.20;3.10;;;32.40;49.60;;;;;;4882229;29;20043;-83
2021/08/11 10:18:58;;;;;;;7.63;3.25;;;32.70;47.70;;;;;;4887430;29;20032;-83
2021/08/11 10:24:46;;;;;;;6.30;3.00;;;32.60;47.10;;;;;;4881954;29;20036;-85
2021/08/11 10:30:35;;;;;;;6.30;3.03;;;32.30;45.90;;;;;;4881673;29;20059;-83
2021/08/11 10:36:23;;;;;;;6.72;2.65;;;31.80;46.60;;;;;;4881582;29;20036;-85
2021/08/11 10:42:17;;;;;;;7.55;2.80;;;31.80;46.60;;;;;;4881531;29;20048;-85
2021/08/11 10:48:15;;;;;;;6.25;2.60;;;32.30;47.20;;;;;;4881600;29;20031;-85
2021/08/11 10:54:04;;;;;;;6.18;2.88;;;32.60;45.60;;;;;;4862758;29;20505;-85
2021/08/11 10:59:54;;;;;;;6.30;2.75;;;32.80;45.90;;;;;;4862709;29;20378;-85
2021/08/11 11:05:52;;;;;;;5.43;2.67;;;33.40;45.50;;;;;;4862689;29;20093;-84
2021/08/11 11:11:42;;;;;;;5.10;2.40;;;34.60;45.60;;;;;;4862904;29;20072;-85
2021/08/11 11:17:33;;;;;;;5.05;2.55;;;35.80;43.00;;;;;;4862534;29;20036;-85
2021/08/11 11:23:36;;;;;;;3.10;2.20;;;35.80;40.80;;;;;;4862312;29;20121;-86
2021/08/11 11:29:48;;;;;;;4.22;2.33;;;35.70;40.60;;;;;;4862351;29;20044;-84
2021/08/11 11:35:38;;;;;;;3.60;2.25;;;36.50;41.70;;;;;;4862078;29;20028;-84
2021/08/11 11:41:27;;;;;;;4.72;2.30;;;37.70;41.80;;;;;;4869595;29;20045;-83
2021/08/11 11:47:39;;;;;;;4.63;2.30;;;37.10;36.60;;;;;;4861809;29;20086;-82
2021/08/11 11:53:36;;;;;;;4.15;2.28;;;35.80;37.60;;;;;;4881087;29;20443;-82
2021/08/11 11:59:29;;;;;;;4.75;2.30;;;36.70;40.50;;;;;;4880479;29;20566;-83
2021/08/11 12:05:19;;;;;;;6.85;2.38;;;39.70;39.30;;;;;;4880658;29;20032;-84
2021/08/11 12:11:12;;;;;;;2.72;2.00;;;42.30;37.20;;;;;;4880400;29;20048;-84
2021/08/11 12:17:00;;;;;;;4.50;2.42;;;43.20;32.90;;;;;;4880349;29;20410;-82
2021/08/11 12:22:48;;;;;;;5.43;2.33;;;44.60;32.70;;;;;;4879915;29;20501;-82
2021/08/11 12:28:37;;;;;;;4.40;2.10;;;45.30;30.10;;;;;;4880182;29;20036;-83
2021/08/11 12:34:26;;;;;;;7.35;2.53;;;44.00;28.60;;;;;;4880787;29;20096;-82
2021/08/11 12:40:35;;;;;;;3.55;1.98;;;42.70;29.90;;;;;;4879817;29;20052;-87
2021/08/11 12:46:44;;;;;;;5.10;2.60;;;41.00;29.50;;;;;;4884074;29;20043;-85
2021/08/11 12:56:33;;;;;;;4.65;2.38;;;43.50;32.10;;;;;;4883664;29;20044;-82
2021/08/11 13:02:27;;;;;;;4.38;2.63;;;46.10;29.60;;;;;;4904634;29;20074;-82
2021/08/11 13:08:16;;;;;;;4.50;2.47;;;46.20;29.00;;;;;;4884821;29;20036;-83
2021/08/11 13:14:05;;;;;;;4.95;2.38;;;48.30;29.30;;;;;;4883268;29;20105;-83
2021/08/11 13:20:16;;;;;;;4.23;2.30;;;50.30;28.10;;;;;;4883014;29;20100;-82
2021/08/11 13:26:04;;;;;;;4.13;2.40;;;49.90;27.30;;;;;;4882707;29;20053;-83
2021/08/11 13:31:53;;;;;;;4.00;2.33;;;51.90;26.70;;;;;;4882946;29;20036;-83
2021/08/11 13:37:42;;;;;;;4.13;2.60;;;51.20;26.60;;;;;;4882611;29;20070;-85
2021/08/11 13:43:30;;;;;;;5.47;2.60;;;52.50;25.90;;;;;;4882795;29;20554;-85
2021/08/11 13:49:19;;;;;;;6.03;2.80;;;53.50;24.90;;;;;;4882353;29;20397;-84
2021/08/11 13:59:20;;;;;;;6.72;2.50;;;49.40;23.60;;;;;;4882428;29;20120;-82
2021/08/11 14:05:10;;;;;;;4.60;2.30;;;45.30;25.10;;;;;;4882189;29;20124;-81
2021/08/11 14:10:59;;;;;;;3.80;2.10;;;44.00;25.70;;;;;;4883478;29;20081;-82
2021/08/11 14:16:51;;;;;;;4.07;2.30;;;43.70;28.60;;;;;;4882437;29;20069;-81
2021/08/11 14:22:41;;;;;;;4.25;2.17;;;43.80;26.60;;;;;;4888176;29;20075;-80
2021/08/11 14:28:32;;;;;;;3.60;2.20;;;43.70;26.90;;;;;;4885498;29;20047;-83
2021/08/11 14:34:20;;;;;;;3.95;2.00;;;43.00;26.50;;;;;;4885853;29;20418;-82
2021/08/11 14:40:08;;;;;;;3.88;2.05;;;42.60;27.00;;;;;;4885744;29;20052;-82
2021/08/11 14:45:57;;;;;;;4.95;2.20;;;41.40;27.30;;;;;;4884974;29;20048;-81
2021/08/11 14:51:46;;;;;;;5.50;2.70;;;40.30;27.60;;;;;;4890576;29;20056;-81
2021/08/11 15:01:39;;;;;;;4.65;2.38;;;40.40;28.40;;;;;;4883811;29;20084;-82
2021/08/11 15:07:27;;;;;;;6.90;2.80;;;40.10;28.40;;;;;;4883738;29;20040;-82
2021/08/11 15:13:42;;;;;;;5.50;2.40;;;39.70;28.60;;;;;;4884793;29;20071;-83
2021/08/11 15:19:30;;;;;;;6.72;3.17;;;38.60;28.70;;;;;;4884751;29;20570;-83
2021/08/11 15:25:19;;;;;;;4.30;2.30;;;37.50;29.30;;;;;;4884663;29;20093;-83
2021/08/11 15:31:12;;;;;;;5.85;2.33;;;36.50;29.70;;;;;;4884141;29;20048;-83
2021/08/11 15:37:01;;;;;;;6.80;3.63;;;35.80;30.40;;;;;;4884159;29;20081;-83
2021/08/11 15:42:50;;;;;;;6.45;2.40;;;35.30;31.20;;;;;;4883775;29;20077;-83
2021/08/11 15:48:40;;;;;;;4.13;2.30;;;34.80;31.60;;;;;;4888010;29;20040;-81
2021/08/11 15:54:29;;;;;;;5.68;2.80;;;34.70;32.70;;;;;;4883881;29;20116;-83
2021/08/11 16:04:20;;;;;;;10.23;2.95;;;35.40;32.40;;;;;;4882686;29;20098;-83
2021/08/11 16:10:10;;;;;;;10.80;3.63;;;34.70;32.10;;;;;;4883910;29;20036;-83
2021/08/11 16:15:59;;;;;;;9.52;6.18;;;33.80;32.90;;;;;;4883541;29;20062;-83
2021/08/11 16:21:48;;;;;;;5.55;2.53;;;33.30;34.10;;;;;;4883365;29;20078;-83
2021/08/11 16:27:41;;;;;;;5.97;2.78;;;33.30;35.00;;;;;;4884040;29;20378;-84
2021/08/11 16:33:30;;;;;;;6.50;2.78;;;34.70;35.00;;;;;;4883390;29;20554;-83
2021/08/11 16:39:20;;;;;;;12.02;4.70;;;38.10;35.80;;;;;;4883062;29;20052;-83
2021/08/11 16:45:09;;;;;;;4.05;2.20;;;39.70;32.10;;;;;;4883709;29;20036;-84
2021/08/11 16:50:58;;;;;;;4.82;2.60;;;39.60;31.80;;;;;;4883222;29;20058;-84
2021/08/11 16:56:46;;;;;;;5.72;2.38;;;39.90;31.50;;;;;;4883068;29;20158;-83
2021/08/11 17:06:38;;;;;;;5.07;2.30;;;39.30;31.20;;;;;;4883064;29;20459;-83
2021/08/11 17:12:27;;;;;;;6.90;2.53;;;39.80;31.30;;;;;;4882346;29;20434;-83
2021/08/11 17:18:16;;;;;;;4.90;2.25;;;39.90;30.60;;;;;;4885414;29;20116;-83
2021/08/11 17:24:05;;;;;;;5.07;2.42;;;39.40;30.00;;;;;;4882638;29;20047;-84
2021/08/11 17:29:55;;;;;;;6.07;2.30;;;37.90;30.00;;;;;;4882407;29;20469;-84
2021/08/11 17:35:43;;;;;;;6.22;2.38;;;35.80;30.70;;;;;;4883147;29;20044;-85
2021/08/11 17:41:32;;;;;;;5.95;2.58;;;33.90;31.80;;;;;;4883421;29;20088;-86
2021/08/11 17:47:20;;;;;;;5.10;2.42;;;32.60;32.90;;;;;;4884004;29;20093;-87
2021/08/11 17:53:09;;;;;;;8.68;2.83;;;31.70;34.20;;;;;;4884040;29;20446;-87
2021/08/11 17:58:57;;;;;;;5.97;2.42;;;30.80;34.80;;;;;;4884802;29;20032;-86
2021/08/11 18:08:42;;;;;;;6.60;2.75;;;29.70;36.40;;;;;;4883231;29;20047;-84
2021/08/11 18:14:30;;;;;;;5.57;2.55;;;29.20;37.10;;;;;;4882753;29;20047;-85
2021/08/11 18:20:22;;;;;;;6.78;2.85;;;28.70;37.50;;;;;;4885557;29;20048;-85
2021/08/11 18:26:11;;;;;;;6.65;2.95;;;28.00;38.30;;;;;;4884890;29;20044;-82
2021/08/11 18:32:00;;;;;;;6.95;3.10;;;27.50;39.10;;;;;;4882195;29;20051;-84
2021/08/11 18:37:50;;;;;;;9.77;3.15;;;27.00;39.80;;;;;;4882584;29;20390;-83
2021/08/11 18:43:39;;;;;;;7.60;3.35;;;26.50;40.60;;;;;;4882220;29;20391;-84
2021/08/11 18:49:28;;;;;;;7.82;3.15;;;26.10;41.50;;;;;;4882412;29;20039;-84
2021/08/11 18:55:17;;;;;;;8.50;3.75;;;25.60;42.30;;;;;;4881315;29;20129;-83
2021/08/11 19:01:07;;;;;;;9.20;3.95;;;25.30;43.10;;;;;;4881503;29;20052;-83
2021/08/11 19:10:50;;;;;;;9.68;4.00;;;24.80;44.20;;;;;;4881752;29;20040;-81
2021/08/11 19:16:38;;;;;;;8.27;3.55;;;24.40;45.00;;;;;;4881161;29;20037;-81
2021/08/11 19:22:29;;;;;;;8.50;3.72;;;24.10;45.90;;;;;;4881092;29;20382;-81
2021/08/11 19:28:19;;;;;;;8.68;3.85;;;23.80;46.50;;;;;;4880628;29;20116;-81
2021/08/11 19:40:49;;;;;;;7.93;3.90;;;23.40;48.20;;;;;;4880515;29;20052;-87
2021/08/11 19:46:39;;;;;;;8.18;3.65;;;23.10;48.60;;;;;;4880503;29;20028;-86
2021/08/11 19:53:05;;;;;;;9.65;3.78;;;22.90;49.60;;;;;;4883538;29;20040;-86
2021/08/11 19:58:54;;;;;;;8.75;3.83;;;22.60;50.10;;;;;;4899003;29;20031;-89
2021/08/11 20:04:46;;;;;;;9.90;3.92;;;22.50;50.90;;;;;;4882765;29;20060;-88
2021/08/11 20:10:38;;;;;;;8.48;4.07;;;22.30;51.50;;;;;;4880210;29;20081;-88
2021/08/11 20:16:31;;;;;;;9.75;3.72;;;22.10;52.00;;;;;;4880326;29;20071;-87
2021/08/11 20:22:25;;;;;;;8.52;4.07;;;21.90;52.60;;;;;;4880216;29;20100;-89
2021/08/11 20:28:14;;;;;;;8.00;3.90;;;21.70;53.10;;;;;;4880564;29;20110;-89
2021/08/11 20:34:05;;;;;;;9.38;3.67;;;21.50;53.70;;;;;;4885323;29;20093;-89
2021/08/11 20:43:56;;;;;;;10.00;3.70;;;21.20;54.60;;;;;;4888125;29;20071;-90
2021/08/11 20:49:47;;;;;;;8.45;3.88;;;21.00;55.10;;;;;;4880951;29;20089;-90
2021/08/11 20:55:36;;;;;;;8.00;3.72;;;20.90;55.80;;;;;;4880920;29;20503;-90
2021/08/11 21:01:25;;;;;;;8.68;4.03;;;20.70;56.10;;;;;;4880644;29;20214;-89
2021/08/11 21:07:13;;;;;;;10.77;4.43;;;20.50;56.60;;;;;;4884118;29;20527;-89
2021/08/11 21:13:04;;;;;;;13.20;4.65;;;20.40;57.20;;;;;;4883160;29;20085;-88
2021/08/11 21:18:53;;;;;;;10.02;4.38;;;20.20;57.60;;;;;;4883258;29;20032;-87
2021/08/11 21:24:41;;;;;;;9.75;4.47;;;20.10;58.20;;;;;;4883216;29;20044;-87
2021/08/11 21:30:29;;;;;;;10.00;4.93;;;19.90;58.50;;;;;;4882972;29;20024;-88
2021/08/11 21:36:18;;;;;;;9.88;4.93;;;19.80;59.00;;;;;;4883079;29;20060;-87
2021/08/11 21:46:04;;;;;;;9.27;4.88;;;19.60;59.80;;;;;;4883005;29;20112;-88
2021/08/11 21:51:55;;;;;;;11.07;4.78;;;19.50;60.20;;;;;;4882854;29;20072;-89
2021/08/11 21:57:43;;;;;;;10.95;4.90;;;19.40;60.60;;;;;;4882862;29;20052;-88
2021/08/11 22:03:31;;;;;;;9.30;4.47;;;19.20;61.00;;;;;;4882638;29;20501;-89
2021/08/11 22:09:20;;;;;;;10.25;4.45;;;19.10;61.40;;;;;;4882446;29;20546;-89
2021/08/11 22:15:10;;;;;;;9.10;4.80;;;19.00;61.90;;;;;;4881632;29;20417;-89
2021/08/11 22:20:59;;;;;;;11.70;5.15;;;18.90;62.30;;;;;;4882256;29;20048;-88
2021/08/11 22:26:47;;;;;;;12.18;4.95;;;18.80;62.70;;;;;;4882157;29;20057;-87
2021/08/11 22:32:36;;;;;;;9.27;4.75;;;18.60;63.00;;;;;;4882266;29;20080;-88
2021/08/11 22:38:25;;;;;;;9.85;5.40;;;18.60;63.50;;;;;;4882245;29;20037;-88
2021/08/11 22:48:08;;;;;;;10.65;5.20;;;18.40;64.00;;;;;;4881957;29;20076;-88
2021/08/11 22:53:56;;;;;;;9.23;4.53;;;18.30;64.50;;;;;;4882006;29;20068;-88
2021/08/11 22:59:46;;;;;;;10.30;5.30;;;18.20;64.70;;;;;;4881276;29;20208;-87
2021/08/11 23:05:35;;;;;;;11.40;5.30;;;18.20;65.20;;;;;;4881255;29;20087;-87
2021/08/11 23:11:24;;;;;;;10.80;5.35;;;18.10;65.50;;;;;;4881308;29;20127;-88
2021/08/11 23:17:12;;;;;;;9.95;5.53;;;18.00;65.70;;;;;;4881065;29;20052;-87
2021/08/11 23:23:01;;;;;;;14.13;6.07;;;17.90;66.00;;;;;;4881313;29;20120;-87
2021/08/11 23:28:49;;;;;;;11.98;6.03;;;17.80;66.30;;;;;;4881121;29;20228;-86
2021/08/11 23:34:39;;;;;;;12.88;6.05;;;17.70;66.60;;;;;;4880939;29;20036;-88
2021/08/11 23:40:27;;;;;;;14.13;5.78;;;17.60;67.10;;;;;;4880691;29;20128;-87
2021/08/11 23:50:14;;;;;;;12.00;6.38;;;17.70;67.80;;;;;;4880793;29;20044;-87
2021/08/11 23:56:04;;;;;;;11.43;6.45;;;17.70;67.80;;;;;;4880713;29;20068;-86
